Reno (UNR), Valley Road, Nevada Weather observations

Data are for observation ending at time listed.
 Day   Time    Ave.   Ave.  Ave.  Vector   Max.    Total    Solar   Rl      Baro.   Ave.  
  of    of     Air    Rel.  Wind   Wind    Wind   Precip.   Rad.    in      Pres.   Soil  
Year   Day     Temp.  Hum.  Speed  Dir.    Gust                                     Temp. 
2014   (PST)    F      %     mph   deg.    mph      in.     W/m2    W/m2     mb.     F   
-----------------------------------------------------------------------------------------
 113   15:00   64.8    24    4.4   309     18.8     0.00     870     358    852.7   61.9
 113   15:10   66.6    23    4.5   282     10.6     0.00     841     364    852.6   62.1
 113   15:20   65.5    24    4.1   308     11.5     0.00     815     366    852.4   62.3
 113   15:30   64.7    24    8.8   252     16.4     0.00     788     369    852.4   62.5
 113   15:40   63.6    26    8.8   267     17.5     0.00     647     352    852.4   62.7
 113   15:50   63.6    25    8.0   216     11.8     0.00     630     344    852.4   62.9
 113   16:00   63.5    26    8.5   238     18.8     0.00     579     340    852.5   63.1
 113   16:10   63.8    26    5.4   244     11.9     0.00     534     333    852.6   63.3
 113   16:20   63.6    26    7.9   268     13.7     0.00     495     331    852.7   63.5
 113   16:30   63.0    27    7.3   258     13.7     0.00     443     327    852.7   63.6
 113   16:40   62.6    27    6.8   276     14.0     0.00     421     325    852.9   63.8
 113   16:50   62.2    28    8.4   266     16.9     0.00     355     323    853.0   63.9
 113   17:00   61.9    28    7.6   255     17.0     0.00     335     322    853.1   64.1
 113   17:10   61.9    28    7.4   270     13.3     0.00     287     320    853.2   64.2
 113   17:20   60.9    29    8.5   267     15.3     0.00     265     320    853.4   64.3
 113   17:30   60.1    30   10.3   259     18.4     0.00     226     317    853.5   64.3
 113   17:40   59.7    30    9.9   248     18.0     0.00     188     313    853.6   64.4
 113   17:50   59.4    31    8.4   250     17.5     0.00     159     311    853.7   64.4
 113   18:00   59.1    31    9.1   255     19.6     0.00     125     309    853.9   64.4
 113   18:10   58.1    32    8.5   259     18.3     0.00      90     311    854.0   64.4
 113   18:20   57.5    33    8.6   268     16.1     0.00      56     308    854.3   64.4
 113   18:30   56.2    35   10.4   268     20.5     0.00      20     302    854.4   64.4
 113   18:40   55.4    36    9.5   272     19.7     0.00      10     303    854.6   64.3
 113   18:50   55.0    38   10.5   278     19.6     0.00       4     304    854.9   64.3
 113   19:00   54.4    39    9.2   278     16.1     0.00       1     302    855.1   64.2
 113   19:10   53.9    40   10.9   275     19.3     0.00       0     300    855.3   64.1
 113   19:20   53.4    42   10.6   274     19.7     0.00       0     299    855.6   64.0
 113   19:30   53.0    43   10.0   278     20.8     0.00       0     296    855.9   64.0
 113   19:40   52.5    44    7.8   286     16.2     0.00       0     295    856.0   63.8
 113   19:50   52.2    44   11.7   291     19.2     0.00       0     295    856.2   63.7
 113   20:00   51.9    45   10.9   292     21.0     0.00       0     293    856.3   63.6
 113   20:10   51.7    46   11.4   285     21.0     0.00       0     291    856.4   63.5
 113   20:20   51.5    46    9.9   283     17.8     0.00       0     291    856.5   63.4
 113   20:30   51.3    46    8.5   281     17.2     0.00       0     291    856.6   63.3
 113   20:40   51.2    46    8.8   268     15.7     0.00       0     291    856.8   63.1
 113   20:50   51.1    46    8.5   268     16.1     0.00       0     290    856.9   63.0
 113   21:00   51.0    46    9.3   273     17.7     0.00       0     290    857.1   62.9
 113   21:10   50.9    46    9.2   272     18.6     0.00       0     292    857.3   62.8
 113   21:20   50.8    46    8.7   264     17.2     0.00       0     293    857.4   62.6
 113   21:30   50.6    47    7.9   277     19.7     0.00       0     288    857.5   62.5
 113   21:40   50.5    47    8.2   273     16.8     0.00       0     289    857.5   62.4
 113   21:50   50.3    47    8.0   280     15.3     0.00       0     294    857.5   62.3
 113   22:00   50.3    46    6.7   285     13.8     0.00       0     304    857.5   62.1
 113   22:10   50.3    46    6.7   293     15.4     0.00       0     327    857.5   62.0
 113   22:20   50.7    46    5.2   282     10.2     0.00       0     335    857.6   61.9
 113   22:30   50.8    45    3.4   259      8.0     0.00       0     335    857.5   61.8
 113   22:40   50.8    44    1.9   279      7.4     0.00       0     327    857.3   61.6
 113   22:50   50.7    45    3.7   259      7.6     0.00       0     320    857.2   61.5
 113   23:00   50.3    47    4.5   302     11.2     0.00       0     320    857.3   61.4
 113   23:10   50.1    47    5.1   272     12.1     0.00       0     305    857.5   61.3
 113   23:20   50.2    45    6.0   275     14.3     0.00       0     316    857.8   61.2
 113   23:30   50.7    42    5.4   277     13.1     0.00       0     333    857.9   61.1
 113   23:40   50.7    41    4.6   294      9.7     0.00       0     335    857.8   61.0
 113   23:50   50.9    40    6.6   270     13.3     0.00       0     338    857.6   60.9
 114    0:00   51.2    39    7.7   268     14.1     0.00       0     343    857.5   60.8
 114    0:10   51.1    40    7.7   256     13.7     0.00       0     340    857.5   60.7
 114    0:20   51.1    40    6.0   268     11.2     0.00       0     344    857.5   60.6
 114    0:30   51.1    40    4.5   274      8.8     0.00       0     343    857.5   60.5
 114    0:40   50.7    44    4.6   208      8.6     0.00       0     345    857.6   60.4
 114    0:50   49.8    48    3.0   180      5.4     0.00       0     339    857.6   60.4
 114    1:00   49.7    47    2.8   168      4.5     0.00       0     326    857.4   60.3
 114    1:10   49.5    47    0.6   248      3.9     0.00       0     323    857.4   60.2
 114    1:20   49.9    42    2.7   267      6.1     0.00       0     319    857.3   60.1
 114    1:30   50.3    40    3.1   239      5.0     0.00       0     327    857.2   60.1
 114    1:40   49.7    45    3.1   187      6.7     0.00       0     330    857.2   60.0
 114    1:50   49.2    46    1.0   175      3.3     0.00       0     328    857.3   59.9
 114    2:00   49.0    45    1.2   212      3.7     0.00       0     312    857.3   59.8
 114    2:10   48.4    48    1.6   318      2.6     0.00       0     302    857.4   59.8
 114    2:20   47.0    50    0.8    50      3.5     0.00       0     305    857.2   59.7
 114    2:30   46.2    55    2.6    56      5.1     0.00       0     323    857.3   59.6
 114    2:40   46.5    55    1.2   308      3.4     0.00       0     326    857.5   59.5
 114    2:50   46.5    56    2.6   320      5.1     0.00       0     303    857.5   59.5
 114    3:00   46.2    56    1.9   312      2.9     0.00       0     291    857.7   59.4
 114    3:10   45.7    58    1.5   335      3.0     0.00       0     302    857.7   59.3
 114    3:20   45.1    58    0.1   231      1.4     0.00       0     300    857.7   59.2
 114    3:30   45.5    56    2.3   255      9.4     0.00       0     300    857.8   59.1
 114    3:40   46.7    52    3.5   259      7.3     0.00       0     314    857.8   59.1
 114    3:50   47.2    52    3.2   248      8.0     0.00       0     309    857.8   59.0
 114    4:00   48.5    50    3.2   252      7.6     0.00       0     320    857.8   58.9
 114    4:10   49.5    48    4.2   263      8.4     0.00       0     312    857.5   58.8
 114    4:20   50.3    47    3.1   279      8.1     0.00       0     305    857.5   58.7
 114    4:30   48.5    51    2.5   188      5.0     0.00       0     312    857.5   58.6
 114    4:40   46.9    54    2.8   213      7.4     0.00       0     338    857.6   58.5
 114    4:50   47.2    53    2.7   187      4.9     0.00       0     325    857.5   58.5
 114    5:00   46.8    54    0.8   269      2.6     0.00       0     325    857.6   58.4
 114    5:10   47.0    54    3.9   144      9.5     0.00       2     316    857.6   58.3
 114    5:20   46.3    56    4.1   140      6.7     0.00       5     322    857.7   58.2
 114    5:30   46.1    57    2.3   162      4.7     0.00       8     320    857.7   58.2
 114    5:40   46.2    57    1.4   227      2.8     0.00      18     315    857.7   58.1
 114    5:50   45.9    59    0.6   328      2.3     0.00      36     309    857.6   58.0
 114    6:00   46.0    57    1.5   160      5.8     0.00      36     298    857.7   58.0
 114    6:10   46.7    56    4.1   130      6.3     0.00      47     301    857.8   57.9
 114    6:20   46.5    56    3.1   122      6.9     0.00      77     298    858.1   57.8
 114    6:30   47.8    55    1.7    30      3.3     0.00     191     288    858.0   57.8
 114    6:40   49.8    51    0.6     6      2.2     0.00     240     287    857.9   57.7
 114    6:50   50.5    50    2.5     7      4.5     0.00     254     293    857.8   57.7
 114    7:00   50.7    48    2.4   321      4.0     0.00     285     296    857.7   57.6
 114    7:10   52.2    44    1.2   254      3.7     0.00     327     299    857.7   57.5
 114    7:20   55.3    40    1.4   168      3.7     0.00     363     303    857.6   57.5
 114    7:30   55.9    39    1.1   169      3.4     0.00     394     309    857.3   57.4
 114    7:40   56.9    38    2.2   133      4.5     0.00     418     310    857.2   57.4
 114    7:50   58.3    36    0.9   155      2.2     0.00     470     314    857.0   57.4
 114    8:00   58.2    36    4.3   166      8.4     0.00     466     320    856.7   57.3
 114    8:10   57.8    37    5.1   162     10.4     0.00     493     322    856.7   57.3
 114    8:20   57.6    37    4.9   170      9.2     0.00     385     325    856.6   57.3
 114    8:30   57.7    37    6.6   157     11.0     0.00     454     322    856.4   57.3
 114    8:40   58.4    36    5.1   154     10.3     0.00     569     324    856.2   57.3
 114    8:50   59.1    35    6.7   152     10.6     0.00     548     328    856.0   57.3
 114    9:00   60.2    33    3.7   172      8.1     0.00     639     330    855.9   57.4
 114    9:10   61.2    30    6.4   257     15.7     0.00     663     336    855.7   57.4
 114    9:20   61.2    29    9.9   257     17.4     0.00     682     337    855.5   57.5
 114    9:30   61.4    30   10.2   261     21.1     0.00     781     333    855.5   57.6
 114    9:40   61.4    31   10.7   251     18.3     0.00     796     333    855.4   57.7
 114    9:50   62.1    30   10.2   243     19.4     0.00     835     332    855.2   57.8
 114   10:00   62.1    29   12.3   244     21.5     0.00     829     333    855.1   57.8
 114   10:10   62.2    29   12.9   253     22.8     0.00     781     335    855.0   57.9
 114   10:20   62.4    29   12.8   258     25.4     0.00     862     339    854.9   58.0
 114   10:30   62.0    29   13.6   269     23.0     0.00     803     346    854.8   58.2
 114   10:40   62.0    28   14.3   256     27.5     0.00     519     350    854.7   58.3
 114   10:50   61.4    29   11.6   262     22.2     0.00     426     348    854.7   58.5
 114   11:00   61.2    30   11.0   261     20.7     0.00     392     346    854.6   58.7
 114   11:10   61.2    30   10.6   289     18.4     0.00     379     351    854.4   58.9
 114   11:20   61.5    30   10.9   273     21.5     0.00     424     354    854.3   59.1
 114   11:30   61.4    30   11.3   265     21.7     0.00     443     353    854.4   59.3
 114   11:40   62.0    29   12.2   274     25.2     0.00     614     356    854.3   59.5
 114   11:50   62.5    29   11.6   263     23.1     0.00     654     361    854.3   59.6
 114   12:00   62.2    29   13.1   247     23.9     0.00     490     358    854.3   59.8
 114   12:10   61.7    29   13.7   252     27.9     0.00     517     359    854.2   59.9
 114   12:20   61.4    29   13.6   250     26.8     0.00     474     361    854.2   60.0
 114   12:30   61.3    28   12.7   256     22.1     0.00     422     360    854.2   60.2
 114   12:40   61.0    29   14.9   247     24.3     0.00     366     358    854.3   60.3
 114   12:50   61.3    28   11.0   246     20.1     0.00     343     356    854.2   60.4
 114   13:00   61.6    28   11.3   243     19.6     0.00     355     356    854.0   60.5
 114   13:10   61.8    28   11.6   248     18.9     0.00     363     352    854.0   60.6
 114   13:20   61.6    28   11.5   257     24.3     0.00     300     350    853.9   60.7
 114   13:30   62.0    28   10.5   257     24.1     0.00     324     354    853.8   60.8
 114   13:40   61.8    27   12.7   238     30.2     0.00     265     350    853.7   60.9
 114   13:50   62.4    26   11.5   222     19.5     0.00     452     350    853.6   61.0
 114   14:00   64.3    26   10.2   210     16.4     0.00     957     348    853.5   61.1
 114   14:10   64.6    23   12.5   252     25.9     0.00     873     350    853.4   61.1
 114   14:20   64.5    23   12.9   238     22.0     0.00     903     346    853.3   61.2
 114   14:30   64.0    23   12.8   252     24.6     0.00     695     340    853.1   61.2
 114   14:40   64.0    24   12.8   245     21.6     0.00     719     338    852.9   61.3
 114   14:50   64.2    23   14.4   250     27.0     0.00     817     341    852.7   61.4

Return to Reno (UNR), Nevada graphs page.


Western Regional Climate Center,wrcc@dri.edu